Flagstaff Pulliam Airport
KFLG : now visible

Aeroporto :











RITROVATECI SU...

 
LOGIN :

Iscrizione | Disclaimer

   EN    FR    IT 

 









Sommario :    VFR   VFR Marginale   IFR   IFR Intensivo   IFR Molto Intensivo
Visibilità : 
Base nubi : 
>= 8 km
>= 3000ft
5 / 8 km
1000 / 3000 ft
1500m / 5 km
500 / 1000 ft
800 / 1500m
200 / 500 ft
< 800m
< 200 ft
Simboli :   Temporali  Nebbia  Neve Forte  Precipitazioni Forti  Vento > 20 kt






- Altitudine del aeroporto : 7014 ft
- Codice IATA : FLG


KFLG - Flagstaff Pulliam

ULTIMO METAR :
  • 201057Z AUTO 00000KT 10SM CLR M07/M11 A3025 RMK AO2 SLP220 T10721106

METARs OBSOLETI :
  • 200957Z AUTO 00000KT 10SM CLR M07/M11 A3025 RMK AO2 SLP221 T10671106
  • 200857Z AUTO 00000KT 10SM CLR M06/M10 A3025 RMK AO2 SLP218 T10561100 51008

TAF KFLG
Valido dal 20 a 12 ore il 21 a 12 ore UTC


201120Z 2012/2112 VRB04KT P6SM SKC
FM201400 05012G22KT P6SM FEW120
FM210130 VRB04KT P6SM SKC



MetMap, La meteo Aeronautica in un colpo d'occhio ! - Copyright ORBIFLY Dicembre 2007 - Disclaimer

ORBIFLY MET'MAP TEAM :

Programmazione e sviluppo : Alexandra Zaïnal
Concezione : Baudouin d'Aumeries
Aiuto per la programmazione : Marc-Olivier Méhu
Supporto tecnico e logistico : Manuel Goepfert
Aiuto per la traduzione : Arnaldo La Scala

Contatto : metmap@orbifly.com




FONTI E CREDITI :

   NOAA       Earth
Advisory